createdAt,value
2023-05-10T00:05:53.767Z,22.20
2023-05-10T00:08:56.303Z,22.10
2023-05-10T00:11:59.490Z,22.10
2023-05-10T00:15:01.978Z,22.40
2023-05-10T00:18:04.331Z,22.30
2023-05-10T00:21:07.301Z,22.20
2023-05-10T00:24:09.522Z,22.20
2023-05-10T00:27:12.008Z,22.20
2023-05-10T00:30:14.455Z,22.40
2023-05-10T00:33:17.636Z,22.60
2023-05-10T00:36:20.169Z,22.50
2023-05-10T00:39:22.635Z,22.40
2023-05-10T00:42:24.876Z,22.70
2023-05-10T00:45:28.064Z,22.40
2023-05-10T00:48:30.590Z,22.30
2023-05-10T00:51:32.947Z,22.40
2023-05-10T00:54:35.584Z,23.00
2023-05-10T00:57:38.474Z,22.30
2023-05-10T01:00:44.790Z,22.20
2023-05-10T01:03:47.941Z,22.20
2023-05-10T01:06:49.904Z,22.20
2023-05-10T01:09:52.818Z,22.20
2023-05-10T01:12:55.716Z,22.00
2023-05-10T01:15:59.143Z,22.10
2023-05-10T01:19:01.920Z,22.30
2023-05-10T01:22:07.500Z,22.40
2023-05-10T01:25:18.439Z,22.30
2023-05-10T01:28:39.518Z,22.60
2023-05-10T01:32:01.187Z,22.60
2023-05-10T01:35:37.568Z,22.50
2023-05-10T01:38:47.210Z,22.50
2023-05-10T01:41:55.685Z,22.70
2023-05-10T01:45:23.562Z,23.10
2023-05-10T01:48:28.340Z,22.40
2023-05-10T01:51:39.288Z,22.50
2023-05-10T01:54:50.343Z,22.50
2023-05-10T01:57:59.742Z,22.40
2023-05-10T02:01:05.939Z,22.30
2023-05-10T02:04:11.105Z,22.20
2023-05-10T02:07:15.460Z,22.30
2023-05-10T02:10:19.238Z,22.40
2023-05-10T02:13:24.388Z,22.30
2023-05-10T02:16:28.244Z,22.20
2023-05-10T02:19:32.799Z,22.20
2023-05-10T02:22:37.073Z,22.30
2023-05-10T02:25:40.955Z,22.30
2023-05-10T02:28:44.405Z,22.30
2023-05-10T02:31:47.733Z,22.20
2023-05-10T02:34:53.003Z,22.40
2023-05-10T02:37:56.799Z,22.50
2023-05-10T02:41:00.367Z,22.50
2023-05-10T02:44:04.640Z,22.50
2023-05-10T02:47:06.732Z,22.40
2023-05-10T02:50:09.739Z,22.50
2023-05-10T02:53:16.591Z,22.60
2023-05-10T02:56:26.908Z,22.70
2023-05-10T02:59:29.450Z,22.80
2023-05-10T03:02:32.183Z,23.30
2023-05-10T03:05:34.689Z,22.90
2023-05-10T03:08:37.448Z,22.90
2023-05-10T03:11:56.988Z,23.10
2023-05-10T03:15:22.931Z,22.90
2023-05-10T03:18:38.502Z,22.90
2023-05-10T03:21:45.095Z,23.00
2023-05-10T03:24:48.497Z,23.10
2023-05-10T03:27:53.251Z,23.00
2023-05-10T03:30:56.436Z,22.70
2023-05-10T03:33:59.361Z,22.90
2023-05-10T03:37:01.526Z,22.90
2023-05-10T03:40:05.002Z,23.00
2023-05-10T03:43:07.176Z,23.10
2023-05-10T03:46:09.587Z,23.00
2023-05-10T03:49:11.750Z,23.00
2023-05-10T03:52:14.158Z,23.00
2023-05-10T03:55:17.272Z,22.90
2023-05-10T03:58:20.165Z,22.90
2023-05-10T04:01:22.343Z,22.90
2023-05-10T04:04:25.052Z,22.70
2023-05-10T04:07:27.446Z,22.90
2023-05-10T04:10:29.963Z,23.00
2023-05-10T04:13:32.117Z,22.70
2023-05-10T04:16:35.154Z,22.60
2023-05-10T04:19:38.048Z,22.30
2023-05-10T04:22:40.754Z,22.20
2023-05-10T04:25:42.998Z,22.40
2023-05-10T04:28:46.136Z,22.40
2023-05-10T04:31:48.228Z,22.40
2023-05-10T04:34:52.342Z,22.60
2023-05-10T04:37:54.691Z,22.70
2023-05-10T04:41:06.240Z,22.50
2023-05-10T04:44:08.389Z,22.60
2023-05-10T04:47:12.716Z,22.30
2023-05-10T04:50:15.141Z,22.10
2023-05-10T04:53:17.678Z,21.50
2023-05-10T04:56:19.855Z,20.80
2023-05-10T04:59:22.359Z,20.00
2023-05-10T05:02:24.808Z,19.40
2023-05-10T05:05:27.357Z,18.70
2023-05-10T05:08:29.358Z,18.50
2023-05-10T05:11:31.769Z,18.50
2023-05-10T05:14:33.813Z,18.70
2023-05-10T05:17:36.506Z,18.60
2023-05-10T05:20:38.748Z,18.20
2023-05-10T05:23:41.477Z,17.90
2023-05-10T05:26:43.509Z,17.50
2023-05-10T05:29:45.958Z,17.50
2023-05-10T05:32:50.782Z,17.50
2023-05-10T05:35:54.359Z,17.40
2023-05-10T05:38:56.315Z,17.40
2023-05-10T05:42:00.658Z,17.50
2023-05-10T05:45:02.701Z,18.00
2023-05-10T05:48:05.518Z,18.40
2023-05-10T05:51:07.613Z,18.10
2023-05-10T05:54:09.983Z,18.30
2023-05-10T05:57:12.124Z,17.70
2023-05-10T06:00:14.890Z,17.90
2023-05-10T06:03:16.984Z,17.40
2023-05-10T06:23:52.020Z,18.10
2023-05-10T06:26:54.224Z,18.70
2023-05-10T06:30:02.102Z,18.20
2023-05-10T06:33:08.053Z,17.40
2023-05-10T06:36:10.256Z,17.30
2023-05-10T06:39:13.020Z,17.40
2023-05-10T06:42:15.063Z,17.30
2023-05-10T06:45:17.731Z,17.20
2023-05-10T06:48:20.023Z,16.80
2023-05-10T06:51:22.309Z,16.40
2023-05-10T06:54:24.216Z,16.70
2023-05-10T06:57:31.813Z,16.90
2023-05-10T07:00:34.357Z,16.90
2023-05-10T07:03:36.688Z,17.00
2023-05-10T07:06:38.648Z,17.00
2023-05-10T07:09:41.049Z,17.20
2023-05-10T07:12:43.301Z,17.70
2023-05-10T07:15:45.639Z,17.00
2023-05-10T07:18:47.809Z,17.30
2023-05-10T07:21:50.134Z,17.60
2023-05-10T07:24:52.478Z,17.30
2023-05-10T07:27:54.756Z,17.30
2023-05-10T07:30:56.977Z,17.00
2023-05-10T07:33:59.333Z,17.20
2023-05-10T07:37:02.015Z,17.30
2023-05-10T07:40:04.642Z,17.90
2023-05-10T07:43:06.916Z,17.40
2023-05-10T07:46:11.161Z,17.20
2023-05-10T07:49:13.344Z,17.30
2023-05-10T07:52:16.442Z,17.20
2023-05-10T07:55:24.030Z,17.00
2023-05-10T07:58:26.463Z,16.80
2023-05-10T08:01:31.147Z,17.20
2023-05-10T08:04:33.400Z,17.20
2023-05-10T08:07:35.411Z,17.80
2023-05-10T08:10:37.788Z,17.90
2023-05-10T08:13:39.902Z,17.40
2023-05-10T08:16:42.295Z,17.50
2023-05-10T08:19:44.144Z,17.60
2023-05-10T08:22:48.537Z,17.80
2023-05-10T08:25:51.478Z,18.30
2023-05-10T08:28:53.663Z,18.20
2023-05-10T08:31:55.801Z,18.70
2023-05-10T08:34:58.034Z,17.90
2023-05-10T08:38:00.069Z,18.30
2023-05-10T08:41:03.562Z,18.60
2023-05-10T08:44:06.496Z,18.60
2023-05-10T08:47:11.382Z,18.90
2023-05-10T08:50:14.701Z,19.40
2023-05-10T08:53:17.978Z,19.70
2023-05-10T08:56:21.345Z,20.00
2023-05-10T08:59:24.019Z,19.60
2023-05-10T09:02:26.753Z,19.80
2023-05-10T09:05:29.265Z,19.70
2023-05-10T09:08:32.093Z,19.30
2023-05-10T09:11:34.784Z,19.40
2023-05-10T09:14:37.121Z,18.90
2023-05-10T09:17:43.673Z,19.60
2023-05-10T09:20:45.913Z,19.70
2023-05-10T09:23:51.009Z,19.70
2023-05-10T09:26:53.143Z,20.00
2023-05-10T09:29:56.065Z,20.20
2023-05-10T09:33:00.331Z,20.10
2023-05-10T09:36:09.147Z,19.20
2023-05-10T09:39:11.093Z,19.70
2023-05-10T09:42:13.323Z,20.40
2023-05-10T09:45:15.508Z,19.90
2023-05-10T09:48:17.986Z,20.00
2023-05-10T09:51:24.702Z,19.80
2023-05-10T09:54:26.887Z,20.20
2023-05-10T09:57:28.821Z,20.30
2023-05-10T10:00:38.011Z,20.30
2023-05-10T10:03:44.443Z,20.00
2023-05-10T10:06:46.789Z,19.60
2023-05-10T10:09:49.040Z,19.70
2023-05-10T10:12:51.945Z,19.50
2023-05-10T10:15:55.670Z,19.50
2023-05-10T10:18:58.718Z,20.00
2023-05-10T10:22:01.738Z,19.60
2023-05-10T10:25:05.524Z,19.90
2023-05-10T10:28:30.610Z,20.00
2023-05-10T10:31:43.058Z,20.00
2023-05-10T10:34:45.334Z,19.40
2023-05-10T10:37:50.909Z,19.70
2023-05-10T10:41:27.838Z,19.40
2023-05-10T10:44:35.874Z,19.60
2023-05-10T10:47:38.382Z,19.70
2023-05-10T10:50:47.638Z,19.80
2023-05-10T10:53:50.166Z,19.50
2023-05-10T10:57:12.658Z,19.40
2023-05-10T11:00:31.896Z,19.70
2023-05-10T11:03:34.313Z,19.40
2023-05-10T11:06:37.384Z,19.40
2023-05-10T11:09:42.689Z,19.20
2023-05-10T11:13:05.336Z,19.70
2023-05-10T11:16:21.029Z,19.40
2023-05-10T11:19:28.147Z,20.00
2023-05-10T11:22:32.137Z,19.70
2023-05-10T11:25:34.163Z,20.30
2023-05-10T11:28:47.021Z,19.40
2023-05-10T11:31:50.453Z,20.00
2023-05-10T11:34:52.653Z,20.30
2023-05-10T11:37:54.653Z,20.40
2023-05-10T11:40:56.967Z,20.10
2023-05-10T11:43:59.886Z,20.10
2023-05-10T11:47:04.307Z,20.20
2023-05-10T11:50:07.124Z,19.90
2023-05-10T11:53:09.370Z,20.20
2023-05-10T11:56:12.190Z,20.50
2023-05-10T11:59:16.014Z,20.50
2023-05-10T12:02:18.011Z,20.50
2023-05-10T12:05:20.932Z,20.30
2023-05-10T12:08:27.045Z,19.90
2023-05-10T12:11:29.981Z,19.60
2023-05-10T12:14:36.105Z,19.50
2023-05-10T12:17:43.178Z,20.20
2023-05-10T12:20:45.770Z,20.30
2023-05-10T12:23:53.259Z,20.00
2023-05-10T12:26:55.273Z,19.60
2023-05-10T12:30:00.783Z,19.40
2023-05-10T12:33:12.595Z,19.40
2023-05-10T12:36:16.143Z,19.20
2023-05-10T12:39:18.285Z,19.20
2023-05-10T12:42:20.678Z,19.60
2023-05-10T12:45:23.098Z,19.70
2023-05-10T12:48:25.585Z,19.70
2023-05-10T12:51:27.620Z,19.60
2023-05-10T12:54:29.849Z,19.70
2023-05-10T12:57:31.971Z,19.40
2023-05-10T13:00:34.548Z,19.80
2023-05-10T13:03:36.498Z,19.90
2023-05-10T13:06:38.719Z,19.80
2023-05-10T13:09:41.380Z,19.90
2023-05-10T13:12:43.692Z,19.90
2023-05-10T13:15:51.833Z,20.00
2023-05-10T13:18:54.221Z,19.80
2023-05-10T13:21:56.286Z,19.60
2023-05-10T13:24:58.470Z,19.90
2023-05-10T13:28:00.419Z,19.80
2023-05-10T13:31:02.682Z,19.80
2023-05-10T13:34:06.521Z,19.80
2023-05-10T13:37:09.233Z,19.80
2023-05-10T13:40:12.106Z,20.00
2023-05-10T13:43:14.623Z,20.10
2023-05-10T13:46:16.715Z,20.00
2023-05-10T13:49:18.952Z,19.70
2023-05-10T13:52:21.042Z,19.90
2023-05-10T13:55:23.373Z,20.00
2023-05-10T13:58:25.424Z,20.00
2023-05-10T14:01:27.829Z,20.10
2023-05-10T14:04:31.411Z,20.00
2023-05-10T14:07:34.239Z,20.20
2023-05-10T14:10:36.373Z,20.40
2023-05-10T14:13:38.840Z,20.20
2023-05-10T14:16:44.812Z,20.30
2023-05-10T14:19:47.490Z,20.20
2023-05-10T14:22:49.473Z,20.30
2023-05-10T14:25:52.653Z,20.40
2023-05-10T14:28:54.858Z,20.70
2023-05-10T14:31:57.316Z,20.70
2023-05-10T14:34:59.729Z,20.40
2023-05-10T14:38:04.432Z,20.30
2023-05-10T14:41:06.495Z,20.30
2023-05-10T14:44:08.727Z,20.90
2023-05-10T14:47:12.494Z,20.70
2023-05-10T14:50:28.274Z,20.40
2023-05-10T14:53:37.628Z,20.30
2023-05-10T14:56:40.245Z,20.40
2023-05-10T14:59:42.248Z,20.00
2023-05-10T15:02:45.405Z,19.70
2023-05-10T15:05:48.055Z,19.80
2023-05-10T15:08:50.844Z,19.90
2023-05-10T15:11:52.961Z,20.00
2023-05-10T15:14:55.307Z,19.70
2023-05-10T15:17:57.541Z,19.80
2023-05-10T15:37:10.941Z,20.30
2023-05-10T15:40:13.300Z,20.90
2023-05-10T15:43:16.221Z,20.40
2023-05-10T15:46:18.555Z,20.00
2023-05-10T15:49:20.556Z,19.80
2023-05-10T15:52:23.730Z,19.60
2023-05-10T15:55:26.735Z,19.80
2023-05-10T15:58:28.985Z,19.80
2023-05-10T16:01:32.613Z,19.60
2023-05-10T16:04:34.976Z,19.40
2023-05-10T16:07:37.004Z,19.90
2023-05-10T16:10:39.387Z,19.50
2023-05-10T16:13:41.796Z,19.30
2023-05-10T16:16:44.323Z,19.50
2023-05-10T16:19:47.446Z,19.40
2023-05-10T16:22:49.777Z,19.40
2023-05-10T16:25:52.348Z,19.70
2023-05-10T16:28:54.587Z,19.50
2023-05-10T16:31:56.497Z,19.40
2023-05-10T16:34:59.900Z,19.50
2023-05-10T16:38:01.913Z,19.70
2023-05-10T16:41:04.429Z,19.40
2023-05-10T16:44:06.537Z,19.80
2023-05-10T16:47:08.873Z,19.60
2023-05-10T16:50:11.514Z,19.50
2023-05-10T16:53:14.144Z,19.60
2023-05-10T16:56:18.331Z,19.30
2023-05-10T16:59:20.574Z,19.40
2023-05-10T17:02:23.485Z,19.30
2023-05-10T17:05:26.631Z,19.30
2023-05-10T17:08:28.574Z,20.00
2023-05-10T17:11:31.223Z,19.50
2023-05-10T17:14:33.130Z,19.40
2023-05-10T17:17:35.594Z,19.60
2023-05-10T17:20:37.635Z,19.60
2023-05-10T17:23:39.788Z,19.70
2023-05-10T17:26:42.089Z,19.80
2023-05-10T17:29:44.340Z,19.60
2023-05-10T17:32:46.352Z,19.50
2023-05-10T17:35:48.976Z,19.60
2023-05-10T17:38:51.512Z,19.60
2023-05-10T17:41:53.994Z,19.50
2023-05-10T17:44:56.288Z,19.60
2023-05-10T17:47:58.711Z,19.70
2023-05-10T17:51:00.739Z,19.70
2023-05-10T17:54:03.268Z,19.80
2023-05-10T17:57:05.321Z,19.90
2023-05-10T18:00:09.123Z,20.00
2023-05-10T18:03:11.760Z,20.00
2023-05-10T18:06:14.040Z,20.00
2023-05-10T18:09:17.858Z,20.30
2023-05-10T18:12:20.260Z,20.70
2023-05-10T18:15:22.172Z,20.80
2023-05-10T18:18:24.413Z,20.80
2023-05-10T18:21:26.485Z,20.70
2023-05-10T18:24:39.058Z,20.90
2023-05-10T18:27:42.353Z,20.90
2023-05-10T18:30:44.582Z,21.00
2023-05-10T18:33:46.774Z,21.20
2023-05-10T18:36:48.992Z,21.20
2023-05-10T18:39:51.222Z,21.30
2023-05-10T18:42:53.403Z,21.80
